sensor_id;sensor_type;location;lat;lon;timestamp;temperature;humidity
64499;SHT31;51087;55.718;21.122;2023-04-29T00:02:07;0.26;98.43
64499;SHT31;51087;55.718;21.122;2023-04-29T00:04:32;0.26;98.21
64499;SHT31;51087;55.718;21.122;2023-04-29T00:06:58;0.21;98.19
64499;SHT31;51087;55.718;21.122;2023-04-29T00:09:24;0.16;98.39
64499;SHT31;51087;55.718;21.122;2023-04-29T00:11:49;0.12;98.59
64499;SHT31;51087;55.718;21.122;2023-04-29T00:14:15;0.30;98.05
64499;SHT31;51087;55.718;21.122;2023-04-29T00:16:41;0.16;98.19
64499;SHT31;51087;55.718;21.122;2023-04-29T00:19:06;0.33;97.82
64499;SHT31;51087;55.718;21.122;2023-04-29T00:21:32;0.28;98.05
64499;SHT31;51087;55.718;21.122;2023-04-29T00:23:57;0.29;97.93
64499;SHT31;51087;55.718;21.122;2023-04-29T00:26:23;0.39;97.45
64499;SHT31;51087;55.718;21.122;2023-04-29T00:28:48;0.35;97.50
64499;SHT31;51087;55.718;21.122;2023-04-29T00:31:14;0.33;97.42
64499;SHT31;51087;55.718;21.122;2023-04-29T00:33:39;0.19;97.75
64499;SHT31;51087;55.718;21.122;2023-04-29T00:36:05;0.19;98.09
64499;SHT31;51087;55.718;21.122;2023-04-29T00:38:31;0.24;97.91
64499;SHT31;51087;55.718;21.122;2023-04-29T00:40:57;0.50;96.98
64499;SHT31;51087;55.718;21.122;2023-04-29T00:43:22;0.39;97.13
64499;SHT31;51087;55.718;21.122;2023-04-29T00:45:48;0.29;97.17
64499;SHT31;51087;55.718;21.122;2023-04-29T00:48:15;0.50;96.93
64499;SHT31;51087;55.718;21.122;2023-04-29T00:50:40;0.46;96.87
64499;SHT31;51087;55.718;21.122;2023-04-29T00:53:07;0.42;96.92
64499;SHT31;51087;55.718;21.122;2023-04-29T00:55:32;0.30;96.94
64499;SHT31;51087;55.718;21.122;2023-04-29T00:58:00;0.25;97.26
64499;SHT31;51087;55.718;21.122;2023-04-29T01:00:27;0.42;96.87
64499;SHT31;51087;55.718;21.122;2023-04-29T01:02:53;0.45;96.57
64499;SHT31;51087;55.718;21.122;2023-04-29T01:05:23;0.41;96.71
64499;SHT31;51087;55.718;21.122;2023-04-29T01:10:35;0.42;96.43
64499;SHT31;51087;55.718;21.122;2023-04-29T01:13:30;0.62;95.73
64499;SHT31;51087;55.718;21.122;2023-04-29T01:16:03;0.50;95.75
64499;SHT31;51087;55.718;21.122;2023-04-29T01:18:32;0.46;95.87
64499;SHT31;51087;55.718;21.122;2023-04-29T01:20:59;0.39;96.35
64499;SHT31;51087;55.718;21.122;2023-04-29T01:23:28;0.42;96.10
64499;SHT31;51087;55.718;21.122;2023-04-29T01:25:55;0.45;96.08
64499;SHT31;51087;55.718;21.122;2023-04-29T01:31:46;0.43;95.81
64499;SHT31;51087;55.718;21.122;2023-04-29T01:34:20;0.30;96.11
64499;SHT31;51087;55.718;21.122;2023-04-29T01:39:59;0.30;96.35
64499;SHT31;51087;55.718;21.122;2023-04-29T01:42:39;0.38;96.05
64499;SHT31;51087;55.718;21.122;2023-04-29T01:45:10;0.36;95.75
64499;SHT31;51087;55.718;21.122;2023-04-29T01:47:40;0.30;95.96
64499;SHT31;51087;55.718;21.122;2023-04-29T01:50:06;0.32;95.74
64499;SHT31;51087;55.718;21.122;2023-04-29T01:52:31;0.28;95.73
64499;SHT31;51087;55.718;21.122;2023-04-29T01:54:57;0.15;95.97
64499;SHT31;51087;55.718;21.122;2023-04-29T01:57:22;0.19;96.08
64499;SHT31;51087;55.718;21.122;2023-04-29T01:59:48;0.24;95.74
64499;SHT31;51087;55.718;21.122;2023-04-29T02:02:13;0.42;95.11
64499;SHT31;51087;55.718;21.122;2023-04-29T02:04:45;0.45;94.95
64499;SHT31;51087;55.718;21.122;2023-04-29T02:07:10;0.54;94.57
64499;SHT31;51087;55.718;21.122;2023-04-29T02:09:36;0.43;94.56
64499;SHT31;51087;55.718;21.122;2023-04-29T02:12:01;0.50;94.37
64499;SHT31;51087;55.718;21.122;2023-04-29T02:14:28;0.42;94.39
64499;SHT31;51087;55.718;21.122;2023-04-29T02:16:54;0.43;94.29
64499;SHT31;51087;55.718;21.122;2023-04-29T02:19:20;0.49;94.14
64499;SHT31;51087;55.718;21.122;2023-04-29T02:21:45;0.33;94.46
64499;SHT31;51087;55.718;21.122;2023-04-29T02:24:12;0.36;94.58
64499;SHT31;51087;55.718;21.122;2023-04-29T02:26:37;0.38;94.47
64499;SHT31;51087;55.718;21.122;2023-04-29T02:29:03;0.30;94.52
64499;SHT31;51087;55.718;21.122;2023-04-29T02:31:28;0.30;94.43
64499;SHT31;51087;55.718;21.122;2023-04-29T02:33:55;0.29;94.50
64499;SHT31;51087;55.718;21.122;2023-04-29T02:36:20;0.41;94.20
64499;SHT31;51087;55.718;21.122;2023-04-29T02:38:46;0.36;94.16
64499;SHT31;51087;55.718;21.122;2023-04-29T02:41:17;0.33;94.36
64499;SHT31;51087;55.718;21.122;2023-04-29T02:43:43;0.39;94.36
64499;SHT31;51087;55.718;21.122;2023-04-29T02:46:09;0.41;94.19
64499;SHT31;51087;55.718;21.122;2023-04-29T02:48:34;0.50;93.97
64499;SHT31;51087;55.718;21.122;2023-04-29T02:51:00;0.56;93.75
64499;SHT31;51087;55.718;21.122;2023-04-29T02:53:26;0.59;93.17
64499;SHT31;51087;55.718;21.122;2023-04-29T02:55:51;0.59;93.08
64499;SHT31;51087;55.718;21.122;2023-04-29T02:58:17;0.70;92.47
64499;SHT31;51087;55.718;21.122;2023-04-29T03:00:42;0.74;92.37
64499;SHT31;51087;55.718;21.122;2023-04-29T03:03:08;0.72;92.05
64499;SHT31;51087;55.718;21.122;2023-04-29T03:05:34;0.64;92.08
64499;SHT31;51087;55.718;21.122;2023-04-29T03:07:59;0.70;91.95
64499;SHT31;51087;55.718;21.122;2023-04-29T03:10:25;0.77;91.52
64499;SHT31;51087;55.718;21.122;2023-04-29T03:12:51;0.84;91.20
64499;SHT31;51087;55.718;21.122;2023-04-29T03:15:16;0.91;91.05
64499;SHT31;51087;55.718;21.122;2023-04-29T03:17:42;0.92;90.72
64499;SHT31;51087;55.718;21.122;2023-04-29T03:20:10;0.88;90.68
64499;SHT31;51087;55.718;21.122;2023-04-29T03:22:35;0.85;90.75
64499;SHT31;51087;55.718;21.122;2023-04-29T03:25:01;0.97;90.21
64499;SHT31;51087;55.718;21.122;2023-04-29T03:27:27;0.91;89.98
64499;SHT31;51087;55.718;21.122;2023-04-29T03:29:53;0.97;89.87
64499;SHT31;51087;55.718;21.122;2023-04-29T03:32:18;1.07;89.61
64499;SHT31;51087;55.718;21.122;2023-04-29T03:34:43;1.19;89.01
64499;SHT31;51087;55.718;21.122;2023-04-29T03:37:09;1.31;88.39
64499;SHT31;51087;55.718;21.122;2023-04-29T03:39:34;1.46;87.95
64499;SHT31;51087;55.718;21.122;2023-04-29T03:42:00;1.62;87.41
64499;SHT31;51087;55.718;21.122;2023-04-29T03:44:25;1.74;86.79
64499;SHT31;51087;55.718;21.122;2023-04-29T03:46:51;1.87;86.18
64499;SHT31;51087;55.718;21.122;2023-04-29T03:49:16;1.95;85.44
64499;SHT31;51087;55.718;21.122;2023-04-29T03:51:42;2.00;85.22
64499;SHT31;51087;55.718;21.122;2023-04-29T03:54:10;2.03;84.99
64499;SHT31;51087;55.718;21.122;2023-04-29T03:56:35;2.01;84.86
64499;SHT31;51087;55.718;21.122;2023-04-29T03:59:01;2.04;85.00
64499;SHT31;51087;55.718;21.122;2023-04-29T04:01:26;2.10;84.70
64499;SHT31;51087;55.718;21.122;2023-04-29T04:03:52;2.08;84.60
64499;SHT31;51087;55.718;21.122;2023-04-29T04:06:17;2.03;84.45
64499;SHT31;51087;55.718;21.122;2023-04-29T04:08:42;2.15;84.05
64499;SHT31;51087;55.718;21.122;2023-04-29T04:11:08;2.17;83.80
64499;SHT31;51087;55.718;21.122;2023-04-29T04:13:34;2.25;83.45
64499;SHT31;51087;55.718;21.122;2023-04-29T04:16:00;2.20;83.39
64499;SHT31;51087;55.718;21.122;2023-04-29T04:18:25;2.28;83.23
64499;SHT31;51087;55.718;21.122;2023-04-29T04:20:50;2.28;83.40
64499;SHT31;51087;55.718;21.122;2023-04-29T04:23:16;2.35;82.96
64499;SHT31;51087;55.718;21.122;2023-04-29T04:25:47;2.41;82.94
64499;SHT31;51087;55.718;21.122;2023-04-29T04:28:13;2.43;82.83
64499;SHT31;51087;55.718;21.122;2023-04-29T04:30:39;2.53;82.38
64499;SHT31;51087;55.718;21.122;2023-04-29T04:33:05;2.63;82.35
64499;SHT31;51087;55.718;21.122;2023-04-29T04:35:31;2.70;81.71
64499;SHT31;51087;55.718;21.122;2023-04-29T04:37:56;2.83;81.13
64499;SHT31;51087;55.718;21.122;2023-04-29T04:40:21;2.93;81.06
64499;SHT31;51087;55.718;21.122;2023-04-29T04:42:47;3.04;80.78
64499;SHT31;51087;55.718;21.122;2023-04-29T04:45:12;3.15;80.55
64499;SHT31;51087;55.718;21.122;2023-04-29T04:47:40;3.19;80.22
64499;SHT31;51087;55.718;21.122;2023-04-29T04:50:06;3.31;79.80
64499;SHT31;51087;55.718;21.122;2023-04-29T04:52:32;3.46;79.57
64499;SHT31;51087;55.718;21.122;2023-04-29T04:54:58;3.66;78.81
64499;SHT31;51087;55.718;21.122;2023-04-29T04:57:23;3.83;78.53
64499;SHT31;51087;55.718;21.122;2023-04-29T04:59:49;3.94;78.16
64499;SHT31;51087;55.718;21.122;2023-04-29T05:02:14;4.00;77.58
64499;SHT31;51087;55.718;21.122;2023-04-29T05:04:39;4.12;77.70
64499;SHT31;51087;55.718;21.122;2023-04-29T05:07:05;4.17;77.42
64499;SHT31;51087;55.718;21.122;2023-04-29T05:09:30;4.25;77.53
64499;SHT31;51087;55.718;21.122;2023-04-29T05:11:56;4.35;77.28
64499;SHT31;51087;55.718;21.122;2023-04-29T05:14:23;4.46;77.22
64499;SHT31;51087;55.718;21.122;2023-04-29T05:16:49;4.62;76.59
64499;SHT31;51087;55.718;21.122;2023-04-29T05:19:15;4.81;75.55
64499;SHT31;51087;55.718;21.122;2023-04-29T05:21:41;5.00;74.15
64499;SHT31;51087;55.718;21.122;2023-04-29T05:24:06;5.23;73.32
64499;SHT31;51087;55.718;21.122;2023-04-29T05:26:31;5.31;72.56
64499;SHT31;51087;55.718;21.122;2023-04-29T05:28:57;5.49;71.48
64499;SHT31;51087;55.718;21.122;2023-04-29T05:31:22;5.59;70.94
64499;SHT31;51087;55.718;21.122;2023-04-29T05:33:47;5.70;70.91
64499;SHT31;51087;55.718;21.122;2023-04-29T05:36:13;5.81;70.66
64499;SHT31;51087;55.718;21.122;2023-04-29T05:38:38;5.91;69.87
64499;SHT31;51087;55.718;21.122;2023-04-29T05:41:04;6.00;69.73
64499;SHT31;51087;55.718;21.122;2023-04-29T05:43:30;6.06;69.73
64499;SHT31;51087;55.718;21.122;2023-04-29T05:45:55;6.16;70.06
64499;SHT31;51087;55.718;21.122;2023-04-29T05:48:20;6.25;69.75
64499;SHT31;51087;55.718;21.122;2023-04-29T05:50:46;6.45;69.18
64499;SHT31;51087;55.718;21.122;2023-04-29T05:53:12;6.44;69.41
64499;SHT31;51087;55.718;21.122;2023-04-29T05:55:38;6.56;68.46
64499;SHT31;51087;55.718;21.122;2023-04-29T05:58:04;6.71;67.83
64499;SHT31;51087;55.718;21.122;2023-04-29T06:00:30;6.71;68.31
64499;SHT31;51087;55.718;21.122;2023-04-29T06:02:56;6.84;68.05
64499;SHT31;51087;55.718;21.122;2023-04-29T06:05:22;6.94;67.75
64499;SHT31;51087;55.718;21.122;2023-04-29T06:07:47;7.04;66.71
64499;SHT31;51087;55.718;21.122;2023-04-29T06:10:13;7.18;66.52
64499;SHT31;51087;55.718;21.122;2023-04-29T06:12:39;7.34;66.52
64499;SHT31;51087;55.718;21.122;2023-04-29T06:15:05;7.54;65.95
64499;SHT31;51087;55.718;21.122;2023-04-29T06:17:30;7.62;64.91
64499;SHT31;51087;55.718;21.122;2023-04-29T06:19:56;7.76;64.27
64499;SHT31;51087;55.718;21.122;2023-04-29T06:22:22;7.86;63.03
64499;SHT31;51087;55.718;21.122;2023-04-29T06:24:48;7.94;62.61
64499;SHT31;51087;55.718;21.122;2023-04-29T06:27:14;8.07;61.97
64499;SHT31;51087;55.718;21.122;2023-04-29T06:29:40;8.20;62.46
64499;SHT31;51087;55.718;21.122;2023-04-29T06:32:06;8.33;62.01
64499;SHT31;51087;55.718;21.122;2023-04-29T06:34:32;8.40;61.58
64499;SHT31;51087;55.718;21.122;2023-04-29T06:36:58;8.46;60.81
64499;SHT31;51087;55.718;21.122;2023-04-29T06:39:23;8.65;60.56
64499;SHT31;51087;55.718;21.122;2023-04-29T06:41:48;8.68;60.50
64499;SHT31;51087;55.718;21.122;2023-04-29T06:44:14;8.79;59.87
64499;SHT31;51087;55.718;21.122;2023-04-29T06:46:43;8.96;59.69
64499;SHT31;51087;55.718;21.122;2023-04-29T06:49:08;9.07;59.38
64499;SHT31;51087;55.718;21.122;2023-04-29T06:51:35;9.17;59.24
64499;SHT31;51087;55.718;21.122;2023-04-29T06:54:01;9.38;58.57
64499;SHT31;51087;55.718;21.122;2023-04-29T06:56:26;9.45;58.29
64499;SHT31;51087;55.718;21.122;2023-04-29T06:58:52;9.52;58.02
64499;SHT31;51087;55.718;21.122;2023-04-29T07:01:17;9.55;57.40
64499;SHT31;51087;55.718;21.122;2023-04-29T07:03:44;9.71;56.86
64499;SHT31;51087;55.718;21.122;2023-04-29T07:06:09;9.82;56.97
64499;SHT31;51087;55.718;21.122;2023-04-29T07:08:35;9.86;56.51
64499;SHT31;51087;55.718;21.122;2023-04-29T07:11:00;9.99;56.27
64499;SHT31;51087;55.718;21.122;2023-04-29T07:13:26;10.07;56.75
64499;SHT31;51087;55.718;21.122;2023-04-29T07:15:52;10.16;56.00
64499;SHT31;51087;55.718;21.122;2023-04-29T07:18:17;10.25;56.06
64499;SHT31;51087;55.718;21.122;2023-04-29T07:20:43;10.41;56.24
64499;SHT31;51087;55.718;21.122;2023-04-29T07:23:08;10.61;56.24
64499;SHT31;51087;55.718;21.122;2023-04-29T07:25:34;10.73;55.56
64499;SHT31;51087;55.718;21.122;2023-04-29T07:28:00;10.92;55.15
64499;SHT31;51087;55.718;21.122;2023-04-29T07:30:25;10.93;53.28
64499;SHT31;51087;55.718;21.122;2023-04-29T07:32:51;10.97;53.46
64499;SHT31;51087;55.718;21.122;2023-04-29T07:35:16;11.10;53.86
64499;SHT31;51087;55.718;21.122;2023-04-29T07:37:42;11.23;53.00
64499;SHT31;51087;55.718;21.122;2023-04-29T07:40:08;11.33;53.06
64499;SHT31;51087;55.718;21.122;2023-04-29T07:42:34;11.45;53.17
64499;SHT31;51087;55.718;21.122;2023-04-29T07:44:59;11.61;53.04
64499;SHT31;51087;55.718;21.122;2023-04-29T07:47:25;11.69;52.52
64499;SHT31;51087;55.718;21.122;2023-04-29T07:49:50;11.86;52.04
64499;SHT31;51087;55.718;21.122;2023-04-29T07:52:17;11.96;50.60
64499;SHT31;51087;55.718;21.122;2023-04-29T07:54:42;12.07;50.01
64499;SHT31;51087;55.718;21.122;2023-04-29T07:57:08;12.37;49.89
64499;SHT31;51087;55.718;21.122;2023-04-29T07:59:34;12.55;48.41
64499;SHT31;51087;55.718;21.122;2023-04-29T08:02:00;12.81;47.56
64499;SHT31;51087;55.718;21.122;2023-04-29T08:04:26;12.87;47.70
64499;SHT31;51087;55.718;21.122;2023-04-29T08:06:51;12.95;48.24
64499;SHT31;51087;55.718;21.122;2023-04-29T08:09:17;12.99;46.38
64499;SHT31;51087;55.718;21.122;2023-04-29T08:11:42;13.24;47.74
64499;SHT31;51087;55.718;21.122;2023-04-29T08:14:09;13.29;46.67
64499;SHT31;51087;55.718;21.122;2023-04-29T08:16:34;13.27;45.41
64499;SHT31;51087;55.718;21.122;2023-04-29T08:18:59;13.27;47.01
64499;SHT31;51087;55.718;21.122;2023-04-29T08:21:25;13.50;47.67
64499;SHT31;51087;55.718;21.122;2023-04-29T08:23:52;13.53;47.30
64499;SHT31;51087;55.718;21.122;2023-04-29T08:26:17;13.50;44.66
64499;SHT31;51087;55.718;21.122;2023-04-29T08:28:46;13.58;44.85
64499;SHT31;51087;55.718;21.122;2023-04-29T08:31:19;13.67;45.01
64499;SHT31;51087;55.718;21.122;2023-04-29T08:33:45;13.68;44.55
64499;SHT31;51087;55.718;21.122;2023-04-29T08:36:11;13.84;44.35
64499;SHT31;51087;55.718;21.122;2023-04-29T08:38:36;13.89;45.41
64499;SHT31;51087;55.718;21.122;2023-04-29T08:41:02;14.78;42.58
64499;SHT31;51087;55.718;21.122;2023-04-29T08:43:27;16.46;39.03
64499;SHT31;51087;55.718;21.122;2023-04-29T08:45:54;18.07;37.08
64499;SHT31;51087;55.718;21.122;2023-04-29T08:48:20;19.81;34.19
64499;SHT31;51087;55.718;21.122;2023-04-29T08:50:46;19.96;34.23
64499;SHT31;51087;55.718;21.122;2023-04-29T08:53:13;19.90;34.81
64499;SHT31;51087;55.718;21.122;2023-04-29T08:55:44;20.72;33.78
64499;SHT31;51087;55.718;21.122;2023-04-29T08:58:10;21.03;33.74
64499;SHT31;51087;55.718;21.122;2023-04-29T09:00:36;19.69;34.87
64499;SHT31;51087;55.718;21.122;2023-04-29T09:05:48;19.17;35.86
64499;SHT31;51087;55.718;21.122;2023-04-29T09:08:15;18.83;36.11
64499;SHT31;51087;55.718;21.122;2023-04-29T09:10:41;18.95;35.65
64499;SHT31;51087;55.718;21.122;2023-04-29T09:13:07;19.62;35.38
64499;SHT31;51087;55.718;21.122;2023-04-29T09:15:37;19.51;34.64
64499;SHT31;51087;55.718;21.122;2023-04-29T09:18:04;19.58;35.22
64499;SHT31;51087;55.718;21.122;2023-04-29T09:20:30;19.32;34.89
64499;SHT31;51087;55.718;21.122;2023-04-29T09:23:01;19.58;35.38
64499;SHT31;51087;55.718;21.122;2023-04-29T09:25:27;20.95;33.57
64499;SHT31;51087;55.718;21.122;2023-04-29T09:27:54;21.10;31.93
64499;SHT31;51087;55.718;21.122;2023-04-29T09:30:20;22.53;31.53
64499;SHT31;51087;55.718;21.122;2023-04-29T09:33:03;23.42;29.36
64499;SHT31;51087;55.718;21.122;2023-04-29T09:35:29;23.81;28.69
64499;SHT31;51087;55.718;21.122;2023-04-29T09:38:08;24.79;28.06
64499;SHT31;51087;55.718;21.122;2023-04-29T09:40:35;24.22;28.08
64499;SHT31;51087;55.718;21.122;2023-04-29T09:43:01;23.25;29.11
64499;SHT31;51087;55.718;21.122;2023-04-29T09:45:37;22.44;30.19
64499;SHT31;51087;55.718;21.122;2023-04-29T09:48:04;22.63;29.86
64499;SHT31;51087;55.718;21.122;2023-04-29T09:50:36;23.15;29.67
64499;SHT31;51087;55.718;21.122;2023-04-29T09:53:03;24.46;28.55
64499;SHT31;51087;55.718;21.122;2023-04-29T09:55:29;24.66;28.33
64499;SHT31;51087;55.718;21.122;2023-04-29T09:57:56;25.45;27.32
64499;SHT31;51087;55.718;21.122;2023-04-29T10:00:21;24.95;27.53
64499;SHT31;51087;55.718;21.122;2023-04-29T10:02:48;25.32;27.72
64499;SHT31;51087;55.718;21.122;2023-04-29T10:05:16;25.32;28.02
64499;SHT31;51087;55.718;21.122;2023-04-29T10:07:41;25.46;26.77
64499;SHT31;51087;55.718;21.122;2023-04-29T10:10:08;25.63;26.70
64499;SHT31;51087;55.718;21.122;2023-04-29T10:12:36;25.27;26.99
64499;SHT31;51087;55.718;21.122;2023-04-29T10:15:03;25.17;27.56
64499;SHT31;51087;55.718;21.122;2023-04-29T10:20:03;23.60;28.98
64499;SHT31;51087;55.718;21.122;2023-04-29T10:22:46;23.53;28.84
64499;SHT31;51087;55.718;21.122;2023-04-29T10:25:18;22.50;30.17
64499;SHT31;51087;55.718;21.122;2023-04-29T10:27:45;23.64;29.26
64499;SHT31;51087;55.718;21.122;2023-04-29T10:30:16;25.17;28.52
64499;SHT31;51087;55.718;21.122;2023-04-29T10:32:43;24.32;28.17
64499;SHT31;51087;55.718;21.122;2023-04-29T10:35:10;25.06;27.40
64499;SHT31;51087;55.718;21.122;2023-04-29T10:37:37;22.94;30.22
64499;SHT31;51087;55.718;21.122;2023-04-29T10:40:13;21.68;32.38
64499;SHT31;51087;55.718;21.122;2023-04-29T10:42:44;21.29;33.72
64499;SHT31;51087;55.718;21.122;2023-04-29T10:45:26;20.07;34.62
64499;SHT31;51087;55.718;21.122;2023-04-29T10:53:11;18.35;37.98
64499;SHT31;51087;55.718;21.122;2023-04-29T10:55:39;17.56;39.55
64499;SHT31;51087;55.718;21.122;2023-04-29T10:58:05;17.07;41.32
64499;SHT31;51087;55.718;21.122;2023-04-29T11:00:51;16.53;42.93
64499;SHT31;51087;55.718;21.122;2023-04-29T11:03:50;16.52;43.40
64499;SHT31;51087;55.718;21.122;2023-04-29T11:06:37;16.67;43.41
64499;SHT31;51087;55.718;21.122;2023-04-29T11:09:34;16.59;42.10
64499;SHT31;51087;55.718;21.122;2023-04-29T11:12:02;16.64;42.22
64499;SHT31;51087;55.718;21.122;2023-04-29T11:14:30;16.74;42.05
64499;SHT31;51087;55.718;21.122;2023-04-29T11:17:00;16.59;41.98
64499;SHT31;51087;55.718;21.122;2023-04-29T11:19:31;16.45;42.12
64499;SHT31;51087;55.718;21.122;2023-04-29T11:25:04;16.38;42.20
64499;SHT31;51087;55.718;21.122;2023-04-29T11:27:32;16.25;42.60
64499;SHT31;51087;55.718;21.122;2023-04-29T11:29:58;16.38;42.74
64499;SHT31;51087;55.718;21.122;2023-04-29T11:32:26;16.55;42.90
64499;SHT31;51087;55.718;21.122;2023-04-29T11:34:52;16.73;42.88
64499;SHT31;51087;55.718;21.122;2023-04-29T11:37:25;16.46;42.83
64499;SHT31;51087;55.718;21.122;2023-04-29T11:39:58;16.35;43.35
64499;SHT31;51087;55.718;21.122;2023-04-29T11:42:23;16.19;43.52
64499;SHT31;51087;55.718;21.122;2023-04-29T11:44:55;16.15;43.90
64499;SHT31;51087;55.718;21.122;2023-04-29T11:47:28;16.22;43.86
64499;SHT31;51087;55.718;21.122;2023-04-29T11:50:01;16.38;43.81
64499;SHT31;51087;55.718;21.122;2023-04-29T11:52:27;16.56;43.60
64499;SHT31;51087;55.718;21.122;2023-04-29T11:54:56;16.83;43.25
64499;SHT31;51087;55.718;21.122;2023-04-29T11:57:22;16.85;43.10
64499;SHT31;51087;55.718;21.122;2023-04-29T11:59:48;17.01;43.38
64499;SHT31;51087;55.718;21.122;2023-04-29T12:02:13;17.24;42.99
64499;SHT31;51087;55.718;21.122;2023-04-29T12:04:48;17.53;42.63
64499;SHT31;51087;55.718;21.122;2023-04-29T12:07:17;17.40;42.34
64499;SHT31;51087;55.718;21.122;2023-04-29T12:09:45;17.35;42.87
64499;SHT31;51087;55.718;21.122;2023-04-29T12:12:14;17.59;42.42
64499;SHT31;51087;55.718;21.122;2023-04-29T12:14:40;17.63;42.24
64499;SHT31;51087;55.718;21.122;2023-04-29T12:17:07;17.59;42.34
64499;SHT31;51087;55.718;21.122;2023-04-29T12:19:34;17.52;42.32
64499;SHT31;51087;55.718;21.122;2023-04-29T12:22:02;17.18;42.83
64499;SHT31;51087;55.718;21.122;2023-04-29T12:24:28;17.07;43.17
64499;SHT31;51087;55.718;21.122;2023-04-29T12:26:54;16.94;43.20
64499;SHT31;51087;55.718;21.122;2023-04-29T12:29:23;16.91;43.44
64499;SHT31;51087;55.718;21.122;2023-04-29T12:31:49;17.04;43.56
64499;SHT31;51087;55.718;21.122;2023-04-29T12:34:15;17.00;43.54
64499;SHT31;51087;55.718;21.122;2023-04-29T12:36:42;17.08;43.51
64499;SHT31;51087;55.718;21.122;2023-04-29T12:39:09;17.14;43.61
64499;SHT31;51087;55.718;21.122;2023-04-29T12:41:38;16.66;44.29
64499;SHT31;51087;55.718;21.122;2023-04-29T12:44:04;16.52;45.22
64499;SHT31;51087;55.718;21.122;2023-04-29T12:46:34;16.35;45.73
64499;SHT31;51087;55.718;21.122;2023-04-29T12:49:02;16.26;46.45
64499;SHT31;51087;55.718;21.122;2023-04-29T12:51:32;16.14;46.96
64499;SHT31;51087;55.718;21.122;2023-04-29T12:54:02;16.19;47.32
64499;SHT31;51087;55.718;21.122;2023-04-29T12:56:29;16.26;46.90
64499;SHT31;51087;55.718;21.122;2023-04-29T12:58:54;16.39;46.74
64499;SHT31;51087;55.718;21.122;2023-04-29T13:01:20;16.46;46.07
64499;SHT31;51087;55.718;21.122;2023-04-29T13:03:45;16.48;45.91
64499;SHT31;51087;55.718;21.122;2023-04-29T13:06:11;16.57;45.19
64499;SHT31;51087;55.718;21.122;2023-04-29T13:08:36;16.70;45.10
64499;SHT31;51087;55.718;21.122;2023-04-29T13:11:02;16.76;44.80
64499;SHT31;51087;55.718;21.122;2023-04-29T13:13:27;16.87;44.82
64499;SHT31;51087;55.718;21.122;2023-04-29T13:15:53;16.74;44.75
64499;SHT31;51087;55.718;21.122;2023-04-29T13:18:18;16.83;44.68
64499;SHT31;51087;55.718;21.122;2023-04-29T13:20:43;16.87;44.68
64499;SHT31;51087;55.718;21.122;2023-04-29T13:23:09;17.06;44.29
64499;SHT31;51087;55.718;21.122;2023-04-29T13:25:36;17.43;43.89
64499;SHT31;51087;55.718;21.122;2023-04-29T13:28:01;17.43;43.74
64499;SHT31;51087;55.718;21.122;2023-04-29T13:30:27;17.59;42.99
64499;SHT31;51087;55.718;21.122;2023-04-29T13:32:52;17.63;43.15
64499;SHT31;51087;55.718;21.122;2023-04-29T13:35:18;17.50;43.36
64499;SHT31;51087;55.718;21.122;2023-04-29T13:37:44;17.42;43.64
64499;SHT31;51087;55.718;21.122;2023-04-29T13:40:10;17.59;43.41
64499;SHT31;51087;55.718;21.122;2023-04-29T13:42:36;17.67;43.05
64499;SHT31;51087;55.718;21.122;2023-04-29T13:45:01;17.58;42.97
64499;SHT31;51087;55.718;21.122;2023-04-29T13:47:28;17.72;43.00
64499;SHT31;51087;55.718;21.122;2023-04-29T13:49:53;17.62;42.95
64499;SHT31;51087;55.718;21.122;2023-04-29T13:52:19;17.58;43.15
64499;SHT31;51087;55.718;21.122;2023-04-29T13:54:44;17.50;43.18
64499;SHT31;51087;55.718;21.122;2023-04-29T13:57:10;17.49;43.91
64499;SHT31;51087;55.718;21.122;2023-04-29T13:59:36;17.17;44.88
64499;SHT31;51087;55.718;21.122;2023-04-29T14:02:02;16.99;45.67
64499;SHT31;51087;55.718;21.122;2023-04-29T14:04:28;17.06;46.35
64499;SHT31;51087;55.718;21.122;2023-04-29T14:06:54;16.84;47.47
64499;SHT31;51087;55.718;21.122;2023-04-29T14:09:20;16.72;48.03
64499;SHT31;51087;55.718;21.122;2023-04-29T14:11:47;16.67;48.63
64499;SHT31;51087;55.718;21.122;2023-04-29T14:14:12;16.76;48.37
64499;SHT31;51087;55.718;21.122;2023-04-29T14:16:38;16.97;48.39
64499;SHT31;51087;55.718;21.122;2023-04-29T14:19:04;17.07;47.99
64499;SHT31;51087;55.718;21.122;2023-04-29T14:21:29;16.91;47.92
64499;SHT31;51087;55.718;21.122;2023-04-29T14:23:57;17.08;47.46
64499;SHT31;51087;55.718;21.122;2023-04-29T14:26:24;17.28;47.52
64499;SHT31;51087;55.718;21.122;2023-04-29T14:28:49;17.28;47.92
64499;SHT31;51087;55.718;21.122;2023-04-29T14:31:30;17.52;48.13
64499;SHT31;51087;55.718;21.122;2023-04-29T14:33:58;17.69;47.25
64499;SHT31;51087;55.718;21.122;2023-04-29T14:36:24;17.94;46.61
64499;SHT31;51087;55.718;21.122;2023-04-29T14:38:50;17.93;45.82
64499;SHT31;51087;55.718;21.122;2023-04-29T14:41:16;18.22;45.86
64499;SHT31;51087;55.718;21.122;2023-04-29T14:43:42;18.32;45.61
64499;SHT31;51087;55.718;21.122;2023-04-29T14:46:08;18.42;45.20
64499;SHT31;51087;55.718;21.122;2023-04-29T14:48:34;18.34;43.82
64499;SHT31;51087;55.718;21.122;2023-04-29T14:50:59;18.27;44.09
64499;SHT31;51087;55.718;21.122;2023-04-29T14:53:24;18.40;44.08
64499;SHT31;51087;55.718;21.122;2023-04-29T14:55:50;18.31;43.87
64499;SHT31;51087;55.718;21.122;2023-04-29T14:58:15;18.38;43.71
64499;SHT31;51087;55.718;21.122;2023-04-29T15:00:43;18.56;43.53
64499;SHT31;51087;55.718;21.122;2023-04-29T15:03:09;20.12;41.32
64499;SHT31;51087;55.718;21.122;2023-04-29T15:05:34;20.01;40.97
64499;SHT31;51087;55.718;21.122;2023-04-29T15:08:00;19.45;42.20
64499;SHT31;51087;55.718;21.122;2023-04-29T15:10:27;18.83;42.97
64499;SHT31;51087;55.718;21.122;2023-04-29T15:12:53;20.34;40.48
64499;SHT31;51087;55.718;21.122;2023-04-29T15:15:18;19.83;40.65
64499;SHT31;51087;55.718;21.122;2023-04-29T15:17:44;20.20;40.62
64499;SHT31;51087;55.718;21.122;2023-04-29T15:20:10;19.78;40.70
64499;SHT31;51087;55.718;21.122;2023-04-29T15:22:36;19.75;41.53
64499;SHT31;51087;55.718;21.122;2023-04-29T15:25:02;18.75;42.97
64499;SHT31;51087;55.718;21.122;2023-04-29T15:27:27;18.70;43.47
64499;SHT31;51087;55.718;21.122;2023-04-29T15:29:53;18.21;44.09
64499;SHT31;51087;55.718;21.122;2023-04-29T15:32:22;18.60;43.60
64499;SHT31;51087;55.718;21.122;2023-04-29T15:34:48;19.07;42.60
64499;SHT31;51087;55.718;21.122;2023-04-29T15:37:14;18.56;43.65
64499;SHT31;51087;55.718;21.122;2023-04-29T15:39:39;18.52;43.76
64499;SHT31;51087;55.718;21.122;2023-04-29T15:42:05;18.30;44.47
64499;SHT31;51087;55.718;21.122;2023-04-29T15:44:31;18.40;44.53